createdAt,value
2023-01-17T00:02:25.616Z,98616.34
2023-01-17T00:05:12.364Z,98620.19
2023-01-17T00:07:58.660Z,98609.50
2023-01-17T00:10:28.316Z,98611.50
2023-01-17T00:12:58.560Z,98613.63
2023-01-17T00:15:28.112Z,98621.06
2023-01-17T00:17:55.783Z,98619.50
2023-01-17T00:20:45.161Z,98603.06
2023-01-17T00:23:35.765Z,98610.25
2023-01-17T00:26:05.380Z,98612.06
2023-01-17T00:28:38.866Z,98605.31
2023-01-17T00:31:08.429Z,98609.62
2023-01-17T00:33:36.841Z,98594.69
2023-01-17T00:36:05.997Z,98608.06
2023-01-17T00:38:36.542Z,98604.19
2023-01-17T00:41:13.052Z,98601.03
2023-01-17T00:43:59.475Z,98597.25
2023-01-17T00:46:46.069Z,98594.41
2023-01-17T00:49:32.555Z,98595.78
2023-01-17T00:52:19.713Z,98585.22
2023-01-17T00:55:05.637Z,98586.53
2023-01-17T00:57:51.989Z,98586.28
2023-01-17T01:00:38.359Z,98587.84
2023-01-17T01:03:29.424Z,98578.16
2023-01-17T01:06:15.530Z,98568.72
2023-01-17T01:09:02.507Z,98565.19
2023-01-17T01:11:49.122Z,98570.88
2023-01-17T01:14:35.522Z,98564.38
2023-01-17T01:17:21.820Z,98563.44
2023-01-17T01:20:10.287Z,98567.41
2023-01-17T01:22:56.682Z,98552.78
2023-01-17T01:25:43.169Z,98551.34
2023-01-17T01:28:31.587Z,98552.97
2023-01-17T01:31:22.296Z,98547.06
2023-01-17T01:33:53.678Z,98540.09
2023-01-17T01:36:21.867Z,98543.81
2023-01-17T01:38:50.381Z,98547.00
2023-01-17T01:41:18.099Z,98538.69
2023-01-17T01:43:51.547Z,98525.56
2023-01-17T01:46:36.766Z,98517.78
2023-01-17T01:49:24.964Z,98516.72
2023-01-17T01:51:58.477Z,98513.69
2023-01-17T01:54:35.545Z,98509.94
2023-01-17T01:57:07.531Z,98514.66
2023-01-17T01:59:41.768Z,98510.84
2023-01-17T02:02:09.682Z,98512.84
2023-01-17T02:04:38.088Z,98515.06
2023-01-17T02:07:11.720Z,98517.06
2023-01-17T02:09:39.590Z,98515.75
2023-01-17T02:12:08.871Z,98521.50
2023-01-17T02:14:36.422Z,98503.56
2023-01-17T02:17:12.968Z,98507.97
2023-01-17T02:20:14.620Z,98511.09
2023-01-17T02:23:00.606Z,98513.69
2023-01-17T02:25:46.710Z,98507.97
2023-01-17T02:28:36.235Z,98510.44
2023-01-17T02:31:22.201Z,98505.84
2023-01-17T02:34:11.888Z,98505.97
2023-01-17T02:36:48.543Z,98486.47
2023-01-17T02:39:28.377Z,98492.28
2023-01-17T02:42:02.787Z,98487.78
2023-01-17T02:44:39.440Z,98483.22
2023-01-17T02:47:21.997Z,98477.97
2023-01-17T02:49:52.635Z,98477.66
2023-01-17T02:52:39.133Z,98478.00
2023-01-17T02:55:17.892Z,98474.94
2023-01-17T02:58:13.319Z,98469.09
2023-01-17T03:01:17.646Z,98459.09
2023-01-17T03:03:52.191Z,98471.63
2023-01-17T03:06:35.349Z,98476.81
2023-01-17T03:09:04.452Z,98478.94
2023-01-17T03:11:32.752Z,98482.59
2023-01-17T03:14:00.368Z,98483.03
2023-01-17T03:16:31.534Z,98480.34
2023-01-17T03:19:00.127Z,98474.53
2023-01-17T03:21:27.828Z,98472.72
2023-01-17T03:23:55.775Z,98478.84
2023-01-17T03:26:23.611Z,98477.00
2023-01-17T03:28:51.264Z,98464.62
2023-01-17T03:31:20.090Z,98461.91
2023-01-17T03:33:48.497Z,98461.75
2023-01-17T03:36:16.095Z,98458.75
2023-01-17T03:38:43.796Z,98461.63
2023-01-17T03:41:11.755Z,98457.41
2023-01-17T03:43:39.370Z,98459.31
2023-01-17T03:46:17.481Z,98458.38
2023-01-17T03:48:46.300Z,98452.16
2023-01-17T03:51:14.188Z,98454.69
2023-01-17T03:53:41.977Z,98451.53
2023-01-17T03:56:09.888Z,98442.44
2023-01-17T03:58:37.529Z,98437.06
2023-01-17T04:01:05.429Z,98423.53
2023-01-17T04:03:33.649Z,98436.09
2023-01-17T04:06:01.422Z,98430.03
2023-01-17T04:08:30.569Z,98433.41
2023-01-17T04:10:58.637Z,98412.50
2023-01-17T04:13:26.245Z,98415.53
2023-01-17T04:15:53.956Z,98415.16
2023-01-17T04:18:23.821Z,98420.28
2023-01-17T04:20:57.028Z,98418.66
2023-01-17T04:23:25.151Z,98421.50
2023-01-17T04:25:52.706Z,98414.72
2023-01-17T04:28:20.310Z,98415.78
2023-01-17T04:30:48.822Z,98418.28
2023-01-17T04:33:16.450Z,98418.56
2023-01-17T04:35:44.184Z,98424.03
2023-01-17T04:38:12.206Z,98419.41
2023-01-17T04:40:39.779Z,98433.09
2023-01-17T04:43:07.279Z,98423.94
2023-01-17T04:45:35.181Z,98422.03
2023-01-17T04:48:05.141Z,98426.75
2023-01-17T04:50:33.112Z,98448.09
2023-01-17T04:53:01.198Z,98451.28
2023-01-17T04:55:28.733Z,98450.75
2023-01-17T04:57:56.621Z,98439.47
2023-01-17T05:00:24.540Z,98435.38
2023-01-17T05:02:52.162Z,98447.38
2023-01-17T05:05:19.745Z,98447.50
2023-01-17T05:07:58.012Z,98445.00
2023-01-17T05:10:26.117Z,98441.44
2023-01-17T05:12:59.253Z,98439.88
2023-01-17T05:15:27.628Z,98449.00
2023-01-17T05:17:55.946Z,98448.25
2023-01-17T05:20:27.704Z,98436.97
2023-01-17T05:22:57.187Z,98437.16
2023-01-17T05:25:26.967Z,98435.47
2023-01-17T05:27:55.302Z,98424.34
2023-01-17T05:30:23.439Z,98421.09
2023-01-17T05:32:52.712Z,98426.97
2023-01-17T05:35:23.826Z,98436.63
2023-01-17T05:37:52.199Z,98423.75
2023-01-17T05:40:25.886Z,98426.62
2023-01-17T05:42:55.787Z,98434.31
2023-01-17T05:45:26.549Z,98431.25
2023-01-17T05:47:55.908Z,98429.69
2023-01-17T05:50:27.303Z,98438.00
2023-01-17T05:52:57.249Z,98436.97
2023-01-17T05:55:27.102Z,98436.84
2023-01-17T05:57:55.718Z,98428.25
2023-01-17T06:00:24.385Z,98436.97
2023-01-17T06:02:56.640Z,98444.38
2023-01-17T06:05:25.674Z,98451.09
2023-01-17T06:07:54.784Z,98455.59
2023-01-17T06:10:23.143Z,98460.81
2023-01-17T06:12:51.157Z,98454.94
2023-01-17T06:15:19.135Z,98471.53
2023-01-17T06:17:46.751Z,98467.63
2023-01-17T06:20:14.332Z,98470.56
2023-01-17T06:22:42.223Z,98471.75
2023-01-17T06:25:10.266Z,98468.50
2023-01-17T06:27:37.985Z,98478.25
2023-01-17T06:30:06.619Z,98471.19
2023-01-17T06:32:34.187Z,98480.09
2023-01-17T06:35:01.675Z,98486.56
2023-01-17T06:37:29.643Z,98492.09
2023-01-17T06:39:57.278Z,98495.28
2023-01-17T06:42:24.959Z,98482.34
2023-01-17T06:44:52.914Z,98479.47
2023-01-17T06:47:20.425Z,98494.72
2023-01-17T06:49:48.047Z,98491.91
2023-01-17T06:52:17.075Z,98502.91
2023-01-17T06:54:44.730Z,98494.00
2023-01-17T06:57:12.285Z,98493.38
2023-01-17T06:59:40.224Z,98497.09
2023-01-17T07:02:10.719Z,98500.31
2023-01-17T07:04:38.645Z,98506.94
2023-01-17T07:07:06.583Z,98505.97
2023-01-17T07:09:34.238Z,98508.56
2023-01-17T07:12:02.122Z,98519.97
2023-01-17T07:14:30.817Z,98531.16
2023-01-17T07:16:58.412Z,98526.97
2023-01-17T07:19:26.133Z,98531.53
2023-01-17T07:21:54.820Z,98541.31
2023-01-17T07:24:22.451Z,98554.13
2023-01-17T07:26:51.089Z,98557.72
2023-01-17T07:29:19.374Z,98565.09
2023-01-17T07:31:49.151Z,98566.09
2023-01-17T07:34:16.862Z,98557.75
2023-01-17T07:36:44.727Z,98565.25
2023-01-17T07:39:12.466Z,98576.53
2023-01-17T07:41:41.471Z,98582.19
2023-01-17T07:44:13.902Z,98578.22
2023-01-17T07:46:41.614Z,98581.44
2023-01-17T07:49:09.579Z,98579.59
2023-01-17T07:51:37.244Z,98593.75
2023-01-17T07:54:04.837Z,98583.37
2023-01-17T07:56:34.667Z,98578.13
2023-01-17T07:59:02.349Z,98594.81
2023-01-17T08:01:30.263Z,98597.28
2023-01-17T08:03:58.163Z,98587.47
2023-01-17T08:06:26.043Z,98593.41
2023-01-17T08:08:56.473Z,98595.50
2023-01-17T08:11:24.729Z,98592.69
2023-01-17T08:13:57.519Z,98602.31
2023-01-17T08:16:26.031Z,98608.22
2023-01-17T08:18:55.228Z,98600.91
2023-01-17T08:21:23.498Z,98595.91
2023-01-17T08:23:52.613Z,98609.38
2023-01-17T08:26:22.375Z,98603.69
2023-01-17T08:28:56.902Z,98607.31
2023-01-17T08:31:24.911Z,98600.03
2023-01-17T08:33:52.612Z,98599.03
2023-01-17T08:36:20.315Z,98616.59
2023-01-17T08:38:52.728Z,98627.56
2023-01-17T08:41:21.225Z,98632.06
2023-01-17T08:43:50.167Z,98640.16
2023-01-17T08:46:18.623Z,98626.91
2023-01-17T08:48:46.498Z,98626.44
2023-01-17T08:51:14.430Z,98628.63
2023-01-17T08:53:42.513Z,98622.41
2023-01-17T08:56:10.063Z,98644.00
2023-01-17T08:58:37.970Z,98638.88
2023-01-17T09:01:06.595Z,98647.81
2023-01-17T09:03:35.285Z,98643.25
2023-01-17T09:06:05.850Z,98647.59
2023-01-17T09:08:34.666Z,98645.50
2023-01-17T09:11:06.830Z,98655.00
2023-01-17T09:13:34.812Z,98663.44
2023-01-17T09:16:03.486Z,98661.94
2023-01-17T09:18:32.675Z,98662.88
2023-01-17T09:21:13.994Z,98671.12
2023-01-17T09:23:42.086Z,98683.88
2023-01-17T09:26:23.653Z,98683.56
2023-01-17T09:28:52.305Z,98680.09
2023-01-17T09:31:21.431Z,98673.94
2023-01-17T09:33:51.791Z,98682.91
2023-01-17T09:36:20.469Z,98683.09
2023-01-17T09:38:48.612Z,98689.81
2023-01-17T09:41:27.750Z,98677.88
2023-01-17T09:44:18.012Z,98678.94
2023-01-17T09:46:48.273Z,98677.09
2023-01-17T09:49:38.177Z,98663.84
2023-01-17T09:52:08.587Z,98670.25
2023-01-17T09:54:40.890Z,98663.22
2023-01-17T09:57:39.079Z,98669.91
2023-01-17T10:00:31.775Z,98686.91
2023-01-17T10:03:08.999Z,98683.47
2023-01-17T10:05:55.549Z,98686.88
2023-01-17T10:08:29.536Z,98681.69
2023-01-17T10:11:25.308Z,98679.56
2023-01-17T10:14:15.830Z,98685.72
2023-01-17T10:17:06.127Z,98683.66
2023-01-17T10:19:54.936Z,98689.66
2023-01-17T10:22:43.955Z,98681.00
2023-01-17T10:25:36.627Z,98685.44
2023-01-17T10:28:18.062Z,98686.59
2023-01-17T10:30:51.388Z,98684.22
2023-01-17T10:33:29.056Z,98684.09
2023-01-17T10:36:07.519Z,98691.19
2023-01-17T10:38:37.792Z,98686.09
2023-01-17T10:41:21.116Z,98686.78
2023-01-17T10:44:19.777Z,98680.22
2023-01-17T10:47:10.411Z,98675.78
2023-01-17T10:49:42.522Z,98676.97
2023-01-17T10:52:36.388Z,98670.78
2023-01-17T10:55:10.249Z,98667.34
2023-01-17T10:57:43.684Z,98670.78
2023-01-17T11:00:44.024Z,98668.84
2023-01-17T11:03:13.731Z,98674.09
2023-01-17T11:05:42.815Z,98676.31
2023-01-17T11:08:13.567Z,98669.66
2023-01-17T11:10:44.655Z,98667.13
2023-01-17T11:13:26.636Z,98666.91
2023-01-17T11:16:06.322Z,98661.44
2023-01-17T11:18:39.488Z,98655.22
2023-01-17T11:21:11.312Z,98651.91
2023-01-17T11:23:42.350Z,98655.59
2023-01-17T11:26:12.198Z,98655.19
2023-01-17T11:28:41.137Z,98657.09
2023-01-17T11:31:27.171Z,98639.91
2023-01-17T11:34:17.391Z,98646.44
2023-01-17T11:36:45.205Z,98640.88
2023-01-17T11:39:19.233Z,98646.09
2023-01-17T11:41:48.005Z,98644.66
2023-01-17T11:44:35.820Z,98642.91
2023-01-17T11:47:12.690Z,98648.12
2023-01-17T11:49:42.817Z,98647.22
2023-01-17T11:52:23.254Z,98637.47
2023-01-17T11:54:54.315Z,98636.78
2023-01-17T11:57:24.649Z,98638.91
2023-01-17T12:00:03.888Z,98630.91
2023-01-17T12:03:10.108Z,98634.34
2023-01-17T12:05:43.929Z,98638.84
2023-01-17T12:08:27.677Z,98629.75
2023-01-17T12:11:30.770Z,98627.44
2023-01-17T12:14:22.819Z,98631.63
2023-01-17T12:16:56.763Z,98628.91
2023-01-17T12:19:39.032Z,98632.00
2023-01-17T12:22:35.306Z,98635.22
2023-01-17T12:25:05.616Z,98634.06
2023-01-17T12:28:10.078Z,98626.91
2023-01-17T12:30:59.711Z,98627.78
2023-01-17T12:33:57.588Z,98636.37
2023-01-17T12:36:28.271Z,98640.69
2023-01-17T12:38:57.274Z,98626.34
2023-01-17T12:41:33.642Z,98627.34
2023-01-17T12:44:01.885Z,98641.03
2023-01-17T12:46:45.298Z,98625.53
2023-01-17T12:49:25.748Z,98629.41
2023-01-17T12:52:03.436Z,98636.87
2023-01-17T12:54:48.911Z,98650.16
2023-01-17T12:57:33.666Z,98634.06
2023-01-17T13:00:12.069Z,98631.59
2023-01-17T13:02:54.969Z,98632.50
2023-01-17T13:05:35.941Z,98637.75
2023-01-17T13:08:27.065Z,98638.91
2023-01-17T13:11:02.322Z,98641.69
2023-01-17T13:13:31.893Z,98644.47
2023-01-17T13:16:21.591Z,98651.50
2023-01-17T13:18:51.998Z,98650.97
2023-01-17T13:21:31.953Z,98659.56
2023-01-17T13:23:59.528Z,98659.81
2023-01-17T13:26:46.154Z,98656.12
2023-01-17T13:29:38.247Z,98651.69
2023-01-17T13:32:16.289Z,98660.13
2023-01-17T13:35:22.835Z,98656.03
2023-01-17T13:38:13.306Z,98652.09
2023-01-17T13:41:15.849Z,98657.53
2023-01-17T13:44:04.332Z,98659.19
2023-01-17T13:46:51.983Z,98655.97
2023-01-17T13:49:50.672Z,98661.53
2023-01-17T13:52:21.070Z,98664.41
2023-01-17T13:54:53.264Z,98660.37
2023-01-17T13:57:29.772Z,98663.66
2023-01-17T13:59:59.708Z,98668.94
2023-01-17T14:02:33.088Z,98661.22
2023-01-17T14:05:23.275Z,98668.16
2023-01-17T14:07:53.948Z,98661.59
2023-01-17T14:10:36.987Z,98659.44
2023-01-17T14:13:06.762Z,98665.56
2023-01-17T14:15:49.692Z,98664.97
2023-01-17T14:18:40.059Z,98652.59
2023-01-17T14:21:19.719Z,98653.09
2023-01-17T14:23:58.483Z,98651.66
2023-01-17T14:26:30.277Z,98644.66
2023-01-17T14:29:18.913Z,98653.25
2023-01-17T14:31:47.397Z,98644.06
2023-01-17T14:34:22.708Z,98645.97
2023-01-17T14:36:50.647Z,98650.78
2023-01-17T14:39:24.421Z,98646.69
2023-01-17T14:41:52.445Z,98639.47
2023-01-17T14:44:20.120Z,98641.72
2023-01-17T14:46:49.170Z,98636.84
2023-01-17T14:49:25.431Z,98643.13
2023-01-17T14:52:04.804Z,98636.59
2023-01-17T14:54:33.495Z,98636.37
2023-01-17T14:57:35.500Z,98634.63
2023-01-17T15:00:21.207Z,98630.50
2023-01-17T15:02:50.635Z,98615.53
2023-01-17T15:05:24.642Z,98610.78
2023-01-17T15:07:55.126Z,98609.72
2023-01-17T15:10:30.805Z,98613.97
2023-01-17T15:13:07.836Z,98615.53
2023-01-17T15:15:39.660Z,98609.38
2023-01-17T15:18:27.250Z,98604.19
2023-01-17T15:21:03.991Z,98605.97
2023-01-17T15:23:39.486Z,98615.28
2023-01-17T15:26:12.638Z,98608.22
2023-01-17T15:28:40.895Z,98609.31
2023-01-17T15:31:13.618Z,98609.56
2023-01-17T15:33:44.828Z,98606.22
2023-01-17T15:36:27.328Z,98599.91
2023-01-17T15:39:00.195Z,98603.41
2023-01-17T15:41:37.499Z,98594.22
2023-01-17T15:44:07.226Z,98581.28
2023-01-17T15:46:45.665Z,98572.19
2023-01-17T15:49:19.615Z,98566.47
2023-01-17T15:52:08.915Z,98568.87
2023-01-17T15:54:50.629Z,98566.97
2023-01-17T15:57:36.946Z,98561.13
2023-01-17T16:00:18.361Z,98564.69
2023-01-17T16:02:58.856Z,98567.47
2023-01-17T16:05:31.103Z,98575.44
2023-01-17T16:08:01.725Z,98570.59
2023-01-17T16:10:37.871Z,98572.78
2023-01-17T16:13:07.808Z,98568.13
2023-01-17T16:15:36.929Z,98573.25
2023-01-17T16:18:15.420Z,98576.06
2023-01-17T16:20:48.605Z,98572.81
2023-01-17T16:23:17.226Z,98568.78
2023-01-17T16:25:46.292Z,98574.56
2023-01-17T16:28:13.841Z,98571.56
2023-01-17T16:30:41.646Z,98565.94
2023-01-17T16:33:13.452Z,98563.16
2023-01-17T16:35:43.057Z,98551.03
2023-01-17T16:38:13.048Z,98547.38
2023-01-17T16:40:46.011Z,98546.25
2023-01-17T16:43:15.832Z,98535.16
2023-01-17T16:45:52.764Z,98531.03
2023-01-17T16:48:21.682Z,98524.63
2023-01-17T16:50:52.340Z,98526.66
2023-01-17T16:53:24.289Z,98519.72
2023-01-17T16:55:57.649Z,98515.34
2023-01-17T16:58:25.446Z,98512.44
2023-01-17T17:00:55.482Z,98515.72
2023-01-17T17:03:23.222Z,98510.94
2023-01-17T17:05:59.498Z,98510.06
2023-01-17T17:08:31.528Z,98506.31
2023-01-17T17:11:14.475Z,98493.81
2023-01-17T17:13:44.925Z,98493.03
2023-01-17T17:16:27.439Z,98483.66
2023-01-17T17:19:15.815Z,98475.66
2023-01-17T17:21:43.383Z,98480.47
2023-01-17T17:24:15.438Z,98469.34
2023-01-17T17:26:43.821Z,98469.03
2023-01-17T17:29:14.785Z,98459.25
2023-01-17T17:31:43.773Z,98453.22
2023-01-17T17:34:13.426Z,98456.09
2023-01-17T17:36:42.004Z,98453.37
2023-01-17T17:39:14.958Z,98456.00
2023-01-17T17:41:45.651Z,98454.25
2023-01-17T17:44:13.323Z,98446.37
2023-01-17T17:46:42.992Z,98442.75
2023-01-17T17:49:11.152Z,98428.03
2023-01-17T17:51:40.343Z,98419.78
2023-01-17T17:54:13.053Z,98407.09
2023-01-17T17:56:46.366Z,98393.56
2023-01-17T17:59:18.343Z,98389.41
2023-01-17T18:01:47.053Z,98378.63
2023-01-17T18:04:15.039Z,98371.78
2023-01-17T18:06:43.023Z,98370.19
2023-01-17T18:09:12.428Z,98358.78
2023-01-17T18:11:42.650Z,98359.63
2023-01-17T18:14:14.221Z,98345.97
2023-01-17T18:16:44.851Z,98331.97
2023-01-17T18:19:20.901Z,98327.81
2023-01-17T18:21:51.331Z,98319.53
2023-01-17T18:24:24.324Z,98315.78
2023-01-17T18:26:57.606Z,98302.28
2023-01-17T18:29:27.200Z,98293.91
2023-01-17T18:31:56.166Z,98287.81
2023-01-17T18:34:29.118Z,98280.50
2023-01-17T18:36:57.941Z,98272.94
2023-01-17T18:39:28.749Z,98256.37
2023-01-17T18:41:56.989Z,98250.31
2023-01-17T18:44:26.744Z,98256.69
2023-01-17T18:46:55.322Z,98253.84
2023-01-17T18:49:23.092Z,98250.72
2023-01-17T18:51:51.755Z,98245.25
2023-01-17T18:54:20.659Z,98240.69
2023-01-17T18:56:48.772Z,98223.41
2023-01-17T18:59:18.606Z,98211.53
2023-01-17T19:01:47.291Z,98220.00
2023-01-17T19:04:17.371Z,98207.78
2023-01-17T19:06:47.752Z,98211.75
2023-01-17T19:09:16.417Z,98191.94
2023-01-17T19:11:45.489Z,98176.25
2023-01-17T19:14:14.507Z,98178.56
2023-01-17T19:16:43.899Z,98180.56
2023-01-17T19:19:14.597Z,98168.00
2023-01-17T19:21:42.971Z,98158.81
2023-01-17T19:24:13.230Z,98156.59
2023-01-17T19:26:42.322Z,98150.56
2023-01-17T19:29:10.851Z,98140.38
2023-01-17T19:31:43.106Z,98127.09
2023-01-17T19:34:14.219Z,98124.81
2023-01-17T19:36:41.925Z,98125.41
2023-01-17T19:39:10.608Z,98122.28
2023-01-17T19:41:43.555Z,98124.28
2023-01-17T19:44:12.962Z,98106.66
2023-01-17T19:46:41.135Z,98089.06
2023-01-17T19:49:09.573Z,98089.75
2023-01-17T19:51:39.414Z,98085.50
2023-01-17T19:54:08.468Z,98084.94
2023-01-17T19:56:36.295Z,98075.97
2023-01-17T19:59:04.198Z,98068.81
2023-01-17T20:01:33.742Z,98064.59
2023-01-17T20:04:03.365Z,98052.16
2023-01-17T20:06:35.970Z,98046.91
2023-01-17T20:09:06.023Z,98046.41
2023-01-17T20:11:33.947Z,98030.97
2023-01-17T20:14:01.914Z,98033.69
2023-01-17T20:16:34.748Z,98027.44
2023-01-17T20:19:03.545Z,98020.47
2023-01-17T20:21:32.299Z,98007.53
2023-01-17T20:24:03.344Z,98002.63
2023-01-17T20:26:36.094Z,97991.84
2023-01-17T20:29:16.266Z,97990.00
2023-01-17T20:31:48.187Z,97977.28
2023-01-17T20:34:18.756Z,97958.91
2023-01-17T20:36:47.376Z,97965.94
2023-01-17T20:39:15.771Z,97970.38
2023-01-17T20:41:46.107Z,97970.94
2023-01-17T20:44:15.737Z,97963.06
2023-01-17T20:46:43.667Z,97948.09
2023-01-17T20:49:15.250Z,97953.47
2023-01-17T20:51:45.447Z,97948.00
2023-01-17T20:54:16.142Z,97951.22
2023-01-17T20:56:47.348Z,97943.56
2023-01-17T20:59:16.952Z,97950.87
2023-01-17T21:01:45.344Z,97944.22
2023-01-17T21:04:13.100Z,97939.00
2023-01-17T21:06:41.086Z,97940.72
2023-01-17T21:09:11.389Z,97939.62
2023-01-17T21:11:38.811Z,97925.59
2023-01-17T21:14:06.522Z,97920.13
2023-01-17T21:16:35.070Z,97904.72
2023-01-17T21:19:02.837Z,97900.94
2023-01-17T21:21:30.348Z,97898.03
2023-01-17T21:23:59.250Z,97897.87
2023-01-17T21:26:27.809Z,97898.03
2023-01-17T21:28:55.575Z,97877.56
2023-01-17T21:31:23.404Z,97878.97
2023-01-17T21:33:52.593Z,97875.88
2023-01-17T21:36:21.330Z,97872.06
2023-01-17T21:38:49.961Z,97873.44
2023-01-17T21:41:17.762Z,97858.03
2023-01-17T21:43:45.070Z,97865.50
2023-01-17T21:46:12.851Z,97867.97
2023-01-17T21:48:40.818Z,97866.16
2023-01-17T21:51:08.753Z,97858.66
2023-01-17T21:53:37.251Z,97866.91
2023-01-17T21:56:24.255Z,97851.03
2023-01-17T21:58:54.738Z,97855.38
2023-01-17T22:01:23.113Z,97841.91
2023-01-17T22:03:53.323Z,97851.72
2023-01-17T22:06:21.587Z,97846.50
2023-01-17T22:08:49.170Z,97840.75
2023-01-17T22:11:18.749Z,97837.56
2023-01-17T22:13:46.703Z,97835.94
2023-01-17T22:16:15.570Z,97826.97
2023-01-17T22:18:44.292Z,97830.28
2023-01-17T22:21:12.885Z,97829.81
2023-01-17T22:23:44.718Z,97837.28
2023-01-17T22:26:12.431Z,97835.66
2023-01-17T22:28:40.306Z,97836.06
2023-01-17T22:31:15.191Z,97827.97
2023-01-17T22:33:44.315Z,97817.66
2023-01-17T22:36:13.846Z,97823.28
2023-01-17T22:38:44.595Z,97815.28
2023-01-17T22:41:16.607Z,97815.84
2023-01-17T22:43:45.107Z,97808.78
2023-01-17T22:46:14.565Z,97804.47
2023-01-17T22:48:42.736Z,97798.00
2023-01-17T22:51:11.666Z,97808.09
2023-01-17T22:53:47.284Z,97806.13
2023-01-17T22:56:16.532Z,97792.41
2023-01-17T22:58:45.059Z,97796.41
2023-01-17T23:01:13.774Z,97792.50
2023-01-17T23:03:41.875Z,97795.47
2023-01-17T23:06:11.203Z,97824.28
2023-01-17T23:08:39.409Z,97808.66
2023-01-17T23:11:42.314Z,97806.75
2023-01-17T23:14:13.088Z,97809.94
2023-01-17T23:17:19.103Z,97825.56
2023-01-17T23:19:48.225Z,97813.41
2023-01-17T23:22:17.673Z,97808.31
2023-01-17T23:24:55.046Z,97832.25
2023-01-17T23:27:41.355Z,97831.25
2023-01-17T23:30:16.014Z,97828.63
2023-01-17T23:32:45.752Z,97818.84
2023-01-17T23:35:13.567Z,97836.25
2023-01-17T23:38:04.104Z,97842.22
2023-01-17T23:40:32.337Z,97833.91
2023-01-17T23:43:18.510Z,97848.19
2023-01-17T23:45:46.184Z,97849.63
2023-01-17T23:48:13.662Z,97872.69
2023-01-17T23:50:45.043Z,97864.66
2023-01-17T23:53:16.134Z,97869.84
2023-01-17T23:55:43.750Z,97862.84
2023-01-17T23:58:11.551Z,97867.50
